createdAt,value
2018-05-07T00:01:04.862Z,93.9
2018-05-07T00:02:12.432Z,93.6
2018-05-07T00:03:19.641Z,93.5
2018-05-07T00:04:26.897Z,93.8
2018-05-07T00:05:34.105Z,93.5
2018-05-07T00:06:41.315Z,93.9
2018-05-07T00:07:48.518Z,92.2
2018-05-07T00:08:55.724Z,94.2
2018-05-07T00:10:02.929Z,93.9
2018-05-07T00:11:10.135Z,94.3
2018-05-07T00:12:17.068Z,93.9
2018-05-07T00:13:24.299Z,94
2018-05-07T00:14:31.531Z,93.9
2018-05-07T00:15:38.752Z,94.2
2018-05-07T00:16:45.680Z,94
2018-05-07T00:17:52.900Z,93.8
2018-05-07T00:19:00.104Z,93.7
2018-05-07T00:20:07.311Z,93.5
2018-05-07T00:21:14.519Z,93.1
2018-05-07T00:22:21.728Z,93.7
2018-05-07T00:23:28.934Z,93.4
2018-05-07T00:24:36.144Z,92
2018-05-07T00:25:43.356Z,93.5
2018-05-07T00:26:50.288Z,93.9
2018-05-07T00:27:57.500Z,93.4
2018-05-07T00:29:04.702Z,93.4
2018-05-07T00:30:11.909Z,93.4
2018-05-07T00:31:19.122Z,93
2018-05-07T00:32:26.332Z,93.5
2018-05-07T00:33:33.542Z,93.8
2018-05-07T00:34:40.748Z,93.8
2018-05-07T00:35:47.957Z,93.7
2018-05-07T00:36:55.212Z,93.4
2018-05-07T00:38:02.640Z,93.8
2018-05-07T00:39:09.571Z,93.8
2018-05-07T00:40:16.776Z,93.4
2018-05-07T00:41:23.710Z,93.6
2018-05-07T00:42:30.920Z,93.8
2018-05-07T00:43:38.135Z,93.8
2018-05-07T00:44:45.340Z,93.8
2018-05-07T00:45:52.555Z,93.6
2018-05-07T00:46:59.534Z,93.6
2018-05-07T00:48:06.741Z,92.9
2018-05-07T00:49:13.672Z,93.2
2018-05-07T00:50:20.607Z,92.7
2018-05-07T00:51:27.832Z,93.4
2018-05-07T00:52:35.036Z,93.1
2018-05-07T00:53:42.240Z,93.1
2018-05-07T00:54:49.448Z,93.7
2018-05-07T00:55:56.654Z,93
2018-05-07T00:57:03.868Z,92.6
2018-05-07T00:58:11.074Z,92.7
2018-05-07T00:59:18.281Z,92.8
2018-05-07T01:00:25.488Z,92.5
2018-05-07T01:01:32.693Z,92.6
2018-05-07T01:02:39.621Z,93
2018-05-07T01:03:46.836Z,92.7
2018-05-07T01:04:54.044Z,93.3
2018-05-07T01:06:01.250Z,92.7
2018-05-07T01:07:08.453Z,92.7
2018-05-07T01:08:15.385Z,92.3
2018-05-07T01:09:22.330Z,92.3
2018-05-07T01:10:29.536Z,93.3
2018-05-07T01:11:36.473Z,93.5
2018-05-07T01:12:43.687Z,93.4
2018-05-07T01:13:51.101Z,93.8
2018-05-07T01:14:58.306Z,93.8
2018-05-07T01:16:05.517Z,93.3
2018-05-07T01:17:12.717Z,92.5
2018-05-07T01:18:19.923Z,94
2018-05-07T01:19:27.131Z,93.9
2018-05-07T01:20:34.336Z,94
2018-05-07T01:21:41.541Z,93.9
2018-05-07T01:22:48.209Z,94
2018-05-07T01:23:55.415Z,94.1
2018-05-07T01:25:02.625Z,93.7
2018-05-07T01:26:09.555Z,93.4
2018-05-07T01:27:16.484Z,93.3
2018-05-07T01:28:23.694Z,93.6
2018-05-07T01:29:30.980Z,93.6
2018-05-07T01:30:38.179Z,94.3
2018-05-07T01:31:45.115Z,94.1
2018-05-07T01:32:52.319Z,94.6
2018-05-07T01:33:59.527Z,93.9
2018-05-07T01:35:06.731Z,94.4
2018-05-07T01:36:13.942Z,94.7
2018-05-07T01:37:21.178Z,94.9
2018-05-07T01:38:28.382Z,94.6
2018-05-07T01:39:35.591Z,94.6
2018-05-07T01:40:42.798Z,94.1
2018-05-07T01:41:50.001Z,93.4
2018-05-07T01:42:57.205Z,93.7
2018-05-07T01:44:04.139Z,92.6
2018-05-07T01:45:11.561Z,93.7
2018-05-07T01:46:18.767Z,94.3
2018-05-07T01:47:25.714Z,94.6
2018-05-07T01:48:32.923Z,94.4
2018-05-07T01:49:40.122Z,94.8
2018-05-07T01:50:47.049Z,94.4
2018-05-07T01:51:54.253Z,95.2
2018-05-07T01:53:01.501Z,94.6
2018-05-07T01:54:08.431Z,94.4
2018-05-07T01:55:15.364Z,94.4
2018-05-07T01:56:22.574Z,94.5
2018-05-07T01:57:29.777Z,94.5
2018-05-07T01:58:37.199Z,94.9
2018-05-07T01:59:44.405Z,95
2018-05-07T02:00:51.613Z,94.6
2018-05-07T02:01:58.816Z,95.5
2018-05-07T02:03:06.026Z,95.2
2018-05-07T02:04:13.234Z,94.7
2018-05-07T02:05:20.437Z,95.6
2018-05-07T02:06:27.638Z,95.7
2018-05-07T02:07:34.839Z,95.6
2018-05-07T02:08:42.045Z,95.9
2018-05-07T02:09:49.249Z,96.5
2018-05-07T02:10:56.451Z,95.8
2018-05-07T02:12:03.658Z,96.3
2018-05-07T02:13:10.331Z,95.5
2018-05-07T02:14:17.537Z,97
2018-05-07T02:15:24.462Z,96.7
2018-05-07T02:16:31.665Z,96
2018-05-07T02:17:38.871Z,95.9
2018-05-07T02:18:45.802Z,95.8
2018-05-07T02:19:53.005Z,95.8
2018-05-07T02:21:00.212Z,95.8
2018-05-07T02:22:07.423Z,95.7
2018-05-07T02:23:14.366Z,95.3
2018-05-07T02:24:21.574Z,96.4
2018-05-07T02:25:28.783Z,96
2018-05-07T02:26:35.986Z,96.3
2018-05-07T02:27:42.917Z,96.1
2018-05-07T02:28:49.846Z,96.6
2018-05-07T02:29:57.004Z,96.7
2018-05-07T02:31:04.216Z,97
2018-05-07T02:32:11.423Z,97.6
2018-05-07T02:33:18.624Z,97
2018-05-07T02:34:25.827Z,97.3
2018-05-07T02:35:33.037Z,97.3
2018-05-07T02:36:40.244Z,97.1
2018-05-07T02:37:47.444Z,96.7
2018-05-07T02:38:54.464Z,96.5
2018-05-07T02:40:01.772Z,97.2
2018-05-07T02:41:08.980Z,96.3
2018-05-07T02:42:16.194Z,96.2
2018-05-07T02:43:23.393Z,96.2
2018-05-07T02:44:30.604Z,96.5
2018-05-07T02:45:37.812Z,96.6
2018-05-07T02:46:44.745Z,96.4
2018-05-07T02:47:51.945Z,97.2
2018-05-07T02:48:59.155Z,96.8
2018-05-07T02:50:06.359Z,96.7
2018-05-07T02:51:13.565Z,97
2018-05-07T02:52:20.771Z,97.2
2018-05-07T02:53:27.982Z,97.9
2018-05-07T02:54:34.909Z,98.1
2018-05-07T02:55:42.125Z,98.1
2018-05-07T02:56:49.052Z,98.1
2018-05-07T02:57:56.260Z,98.6
2018-05-07T02:59:03.470Z,98.5
2018-05-07T03:00:10.689Z,99.5
2018-05-07T03:01:17.891Z,99.9
2018-05-07T03:02:25.093Z,99.9
2018-05-07T03:03:32.023Z,99.9
2018-05-07T03:04:39.230Z,99.9
2018-05-07T03:05:46.432Z,99.9
2018-05-07T03:06:53.641Z,99.9
2018-05-07T03:08:00.880Z,99.9
2018-05-07T03:09:08.091Z,99.9
2018-05-07T03:10:15.301Z,99.9
2018-05-07T03:11:22.514Z,99.9
2018-05-07T03:12:29.446Z,99.9
2018-05-07T03:13:36.648Z,99.9
2018-05-07T03:14:43.869Z,99.9
2018-05-07T03:15:51.065Z,99.9
2018-05-07T03:16:58.267Z,99.9
2018-05-07T03:18:05.470Z,99.9
2018-05-07T03:19:12.700Z,99.9
2018-05-07T03:20:19.357Z,99.9
2018-05-07T03:21:26.283Z,99.9
2018-05-07T03:22:33.480Z,99.9
2018-05-07T03:23:40.694Z,99.9
2018-05-07T03:24:47.944Z,99.9
2018-05-07T03:25:55.462Z,99.9
2018-05-07T03:27:02.668Z,99.9
2018-05-07T03:28:09.592Z,99.9
2018-05-07T03:29:16.798Z,99.9
2018-05-07T03:30:23.729Z,99.9
2018-05-07T03:31:30.958Z,99.9
2018-05-07T03:32:38.163Z,99.9
2018-05-07T03:33:45.103Z,99.9
2018-05-07T03:34:52.309Z,99.9
2018-05-07T03:35:59.512Z,99.9
2018-05-07T03:37:06.715Z,99.9
2018-05-07T03:38:13.931Z,99.9
2018-05-07T03:39:21.129Z,99.9
2018-05-07T03:40:28.427Z,99.9
2018-05-07T03:41:35.683Z,99.9
2018-05-07T03:42:42.895Z,99.9
2018-05-07T03:43:50.099Z,99.9
2018-05-07T03:44:57.303Z,99.9
2018-05-07T03:46:04.232Z,99.9
2018-05-07T03:47:11.439Z,99.9
2018-05-07T03:48:18.649Z,99.9
2018-05-07T03:49:25.851Z,99.9
2018-05-07T03:50:33.060Z,99.9
2018-05-07T03:51:40.265Z,99.9
2018-05-07T03:52:47.467Z,99.9
2018-05-07T03:53:54.672Z,99.9
2018-05-07T03:55:01.601Z,99.9
2018-05-07T03:56:08.264Z,99.9
2018-05-07T03:57:15.466Z,99.9
2018-05-07T03:58:22.672Z,99.9
2018-05-07T03:59:29.876Z,99.9
2018-05-07T04:00:36.805Z,99.9
2018-05-07T04:01:44.012Z,99.9
2018-05-07T04:02:51.213Z,99.9
2018-05-07T04:03:58.416Z,99.9
2018-05-07T04:05:05.619Z,99.9
2018-05-07T04:06:12.823Z,99.9
2018-05-07T04:07:20.045Z,99.9
2018-05-07T04:08:26.995Z,99.9
2018-05-07T04:09:34.201Z,99.9
2018-05-07T04:10:41.133Z,99.9
2018-05-07T04:11:48.336Z,99.9
2018-05-07T04:12:55.548Z,99.9
2018-05-07T04:14:02.753Z,99.9
2018-05-07T04:15:09.677Z,99.9
2018-05-07T04:16:16.882Z,99.9
2018-05-07T04:17:24.085Z,99.9
2018-05-07T04:18:31.014Z,99.9
2018-05-07T04:19:38.211Z,99.9
2018-05-07T04:20:45.419Z,99.9
2018-05-07T04:21:52.626Z,99.9
2018-05-07T04:22:59.837Z,99.9
2018-05-07T04:24:06.761Z,99.9
2018-05-07T04:25:13.699Z,99.9
2018-05-07T04:26:20.903Z,99.9
2018-05-07T04:27:28.112Z,99.9
2018-05-07T04:28:35.319Z,99.9
2018-05-07T04:29:42.443Z,99.9
2018-05-07T04:30:49.648Z,99.9
2018-05-07T04:31:56.855Z,99.9
2018-05-07T04:33:03.510Z,99.9
2018-05-07T04:34:10.436Z,99.9
2018-05-07T04:35:17.368Z,99.9
2018-05-07T04:36:24.585Z,99.9
2018-05-07T04:37:31.522Z,99.9
2018-05-07T04:38:38.723Z,99.9
2018-05-07T04:39:45.925Z,99.9
2018-05-07T04:40:53.135Z,99.9
2018-05-07T04:42:00.341Z,99.9
2018-05-07T04:43:07.623Z,99.9
2018-05-07T04:44:14.954Z,99.9
2018-05-07T04:45:22.159Z,99.9
2018-05-07T04:46:29.365Z,99.9
2018-05-07T04:47:36.307Z,99.9
2018-05-07T04:48:43.570Z,99.9
2018-05-07T04:49:50.804Z,99.9
2018-05-07T04:50:58.010Z,99.9
2018-05-07T04:52:04.983Z,99.9
2018-05-07T04:53:12.179Z,99.9
2018-05-07T04:54:19.377Z,99.9
2018-05-07T04:55:26.304Z,99.9
2018-05-07T04:56:33.279Z,99.9
2018-05-07T04:57:40.293Z,99.9
2018-05-07T04:58:47.496Z,99.9
2018-05-07T04:59:54.765Z,99.9
2018-05-07T05:01:01.957Z,99.9
2018-05-07T05:02:09.172Z,99.9
2018-05-07T05:03:16.387Z,99.9
2018-05-07T05:04:23.587Z,99.9
2018-05-07T05:05:30.818Z,99.9
2018-05-07T05:06:38.025Z,99.9
2018-05-07T05:07:45.228Z,99.9
2018-05-07T05:08:52.438Z,99.9
2018-05-07T05:09:59.372Z,99.9
2018-05-07T05:11:06.606Z,99.9
2018-05-07T05:12:13.814Z,99.9
2018-05-07T05:13:21.025Z,99.9
2018-05-07T05:14:28.221Z,99.9
2018-05-07T05:15:35.431Z,99.9
2018-05-07T05:16:42.359Z,99.9
2018-05-07T05:17:49.567Z,99.9
2018-05-07T05:18:56.791Z,99.9
2018-05-07T05:20:04.099Z,99.9
2018-05-07T05:21:11.309Z,99.9
2018-05-07T05:22:18.962Z,99.9
2018-05-07T05:23:25.900Z,99.9
2018-05-07T05:24:33.108Z,99.9
2018-05-07T05:25:40.359Z,99.9
2018-05-07T05:26:47.565Z,99.9
2018-05-07T05:27:54.494Z,99.9
2018-05-07T05:29:01.701Z,99.9
2018-05-07T05:30:08.914Z,99.9
2018-05-07T05:31:16.114Z,99.9
2018-05-07T05:32:23.324Z,99.9
2018-05-07T05:33:30.547Z,99.9
2018-05-07T05:34:37.752Z,99.9
2018-05-07T05:35:44.961Z,99.9
2018-05-07T05:36:52.162Z,99.9
2018-05-07T05:37:59.368Z,99.9
2018-05-07T05:39:06.571Z,99.9
2018-05-07T05:40:13.508Z,99.9
2018-05-07T05:41:20.711Z,99.9
2018-05-07T05:42:27.918Z,99.9
2018-05-07T05:43:35.202Z,99.9
2018-05-07T05:44:42.797Z,99.9
2018-05-07T05:45:50.002Z,99.9
2018-05-07T05:46:57.207Z,99.9
2018-05-07T05:48:04.413Z,99.9
2018-05-07T05:49:11.615Z,99.9
2018-05-07T05:50:18.857Z,99.9
2018-05-07T05:51:26.376Z,99.9
2018-05-07T05:52:33.585Z,99.9
2018-05-07T05:53:40.792Z,99.9
2018-05-07T05:54:47.995Z,99.9
2018-05-07T05:55:55.203Z,99.9
2018-05-07T05:57:02.406Z,99.9
2018-05-07T05:58:09.611Z,99.9
2018-05-07T05:59:16.822Z,99.9
2018-05-07T06:00:24.026Z,99.9
2018-05-07T06:01:30.951Z,99.9
2018-05-07T06:02:37.890Z,99.9
2018-05-07T06:03:44.844Z,99.2
2018-05-07T06:04:52.301Z,98.9
2018-05-07T06:05:59.506Z,99.3
2018-05-07T06:07:06.437Z,95
2018-05-07T06:08:13.640Z,92.1
2018-05-07T06:09:20.849Z,92.7
2018-05-07T06:10:28.057Z,91.5
2018-05-07T06:11:35.264Z,94.7
2018-05-07T06:12:42.466Z,88.4
2018-05-07T06:13:49.400Z,90.6
2018-05-07T06:14:56.820Z,92.4
2018-05-07T06:16:04.975Z,90.6
2018-05-07T06:17:11.968Z,85.7
2018-05-07T06:18:18.905Z,80.8
2018-05-07T06:19:26.112Z,83.8
2018-05-07T06:20:33.039Z,84.2
2018-05-07T06:21:40.251Z,75.6
2018-05-07T06:22:47.455Z,76
2018-05-07T06:23:54.657Z,74
2018-05-07T06:25:01.886Z,73.3
2018-05-07T06:26:08.878Z,74.3
2018-05-07T06:27:15.862Z,69.4
2018-05-07T06:28:23.373Z,67.6
2018-05-07T06:29:30.303Z,79
2018-05-07T06:30:37.081Z,61.4
2018-05-07T06:31:44.296Z,63.2
2018-05-07T06:32:51.508Z,67.5
2018-05-07T06:33:58.438Z,61
2018-05-07T06:35:05.668Z,57.5
2018-05-07T06:36:12.873Z,68.5
2018-05-07T06:37:20.147Z,57.2
2018-05-07T06:38:27.378Z,55.4
2018-05-07T06:39:34.591Z,59.3
2018-05-07T06:40:41.802Z,64.1
2018-05-07T06:41:48.793Z,48.7
2018-05-07T06:42:56.000Z,49.2
2018-05-07T06:44:03.207Z,52.5
2018-05-07T06:45:10.142Z,48.7
2018-05-07T06:46:17.460Z,49.8
2018-05-07T06:47:24.667Z,50.8
2018-05-07T06:48:31.878Z,55.9
2018-05-07T06:49:39.083Z,44.7
2018-05-07T06:50:46.295Z,51.3
2018-05-07T06:51:53.232Z,52.9
2018-05-07T06:53:00.435Z,46.1
2018-05-07T06:54:07.641Z,43.5
2018-05-07T06:55:14.851Z,49.4
2018-05-07T06:56:22.061Z,43.8
2018-05-07T06:57:28.735Z,48.7
2018-05-07T06:58:35.945Z,49.1
2018-05-07T06:59:42.881Z,51.9
2018-05-07T07:00:50.092Z,51.5
2018-05-07T07:01:57.304Z,49.6
2018-05-07T07:03:04.514Z,37.2
2018-05-07T07:04:11.722Z,44.1
2018-05-07T07:05:18.927Z,44.8
2018-05-07T07:06:25.872Z,43.2
2018-05-07T07:07:33.127Z,41.9
2018-05-07T07:08:40.531Z,36.2
2018-05-07T07:09:48.230Z,35.7
2018-05-07T07:10:55.441Z,44.4
2018-05-07T07:12:02.384Z,43.9
2018-05-07T07:13:09.607Z,43.9
2018-05-07T07:14:16.815Z,41.3
2018-05-07T07:15:24.030Z,44.3
2018-05-07T07:16:31.321Z,35.4
2018-05-07T07:17:38.652Z,41.1
2018-05-07T07:18:45.868Z,44.3
2018-05-07T07:19:52.813Z,47.3
2018-05-07T07:21:00.034Z,39.5
2018-05-07T07:22:07.062Z,34.3
2018-05-07T07:23:14.257Z,34.2
2018-05-07T07:24:21.471Z,34.5
2018-05-07T07:25:28.681Z,37.4
2018-05-07T07:26:35.622Z,37.8
2018-05-07T07:27:42.834Z,34.3
2018-05-07T07:28:50.057Z,35
2018-05-07T07:29:56.989Z,38.3
2018-05-07T07:31:03.925Z,36.1
2018-05-07T07:32:11.194Z,34.1
2018-05-07T07:33:18.412Z,35.4
2018-05-07T07:34:25.632Z,37.7
2018-05-07T07:35:32.845Z,37.3
2018-05-07T07:36:40.058Z,30.7
2018-05-07T07:37:47.271Z,35.6
2018-05-07T07:38:54.480Z,34
2018-05-07T07:40:01.696Z,35.3
2018-05-07T07:41:08.630Z,37.3
2018-05-07T07:42:15.841Z,34.2
2018-05-07T07:43:23.049Z,34.1
2018-05-07T07:44:30.263Z,32.9
2018-05-07T07:45:37.472Z,34
2018-05-07T07:46:44.706Z,30.4
2018-05-07T07:47:51.921Z,33
2018-05-07T07:48:59.136Z,36.7
2018-05-07T07:50:06.355Z,31.2
2018-05-07T07:51:13.567Z,31.9
2018-05-07T07:52:20.531Z,35.3
2018-05-07T07:53:27.976Z,37.8
2018-05-07T07:54:34.970Z,36.9
2018-05-07T07:55:42.189Z,27.3
2018-05-07T07:56:49.405Z,30.7
2018-05-07T07:57:56.345Z,31.5
2018-05-07T07:59:03.563Z,38.3
2018-05-07T08:00:10.780Z,37.2
2018-05-07T08:01:17.987Z,26.8
2018-05-07T08:02:25.202Z,31.6
2018-05-07T08:03:31.881Z,31.3
2018-05-07T08:04:39.099Z,29
2018-05-07T08:05:46.311Z,26.9
2018-05-07T08:06:53.528Z,28.6
2018-05-07T08:08:00.749Z,28.8
2018-05-07T08:10:14.600Z,26.9
2018-05-07T08:11:21.826Z,28.9
2018-05-07T08:12:29.033Z,26.9
2018-05-07T08:13:36.245Z,28.9
2018-05-07T08:14:43.451Z,24.5
2018-05-07T08:15:50.666Z,25.1
2018-05-07T08:16:57.879Z,29.2
2018-05-07T08:18:05.091Z,28.8
2018-05-07T08:19:12.298Z,29.4
2018-05-07T08:20:19.513Z,25.5
2018-05-07T08:21:26.729Z,24.4
2018-05-07T08:22:33.938Z,27.2
2018-05-07T08:23:41.157Z,23.9
2018-05-07T08:24:48.445Z,25.6
2018-05-07T08:25:55.984Z,25.4
2018-05-07T08:27:03.255Z,29.9
2018-05-07T08:28:10.191Z,25.9
2018-05-07T08:29:17.407Z,26.5
2018-05-07T08:30:24.674Z,31.5
2018-05-07T08:31:32.126Z,32.5
2018-05-07T08:32:39.340Z,28.9
2018-05-07T08:33:46.281Z,27.7
2018-05-07T08:34:53.491Z,26
2018-05-07T08:36:00.706Z,27.5
2018-05-07T08:37:07.917Z,28.1
2018-05-07T08:38:14.865Z,28.3
2018-05-07T08:39:22.072Z,24.5
2018-05-07T08:40:29.282Z,24.8
2018-05-07T08:41:36.495Z,26.1
2018-05-07T08:42:43.715Z,24.6
2018-05-07T08:43:50.682Z,24.5
2018-05-07T08:44:58.103Z,26.1
2018-05-07T08:46:04.766Z,25.9
2018-05-07T08:47:11.978Z,20.4
2018-05-07T08:48:19.186Z,27
2018-05-07T08:49:26.400Z,25.9
2018-05-07T08:50:33.614Z,20.8
2018-05-07T08:51:40.835Z,21.2
2018-05-07T08:52:48.130Z,22.9
2018-05-07T08:53:55.730Z,22.7
2018-05-07T08:55:02.949Z,24.2
2018-05-07T08:56:10.161Z,26.6
2018-05-07T08:57:17.378Z,24.7
2018-05-07T08:58:24.607Z,22.9
2018-05-07T08:59:31.545Z,19.9
2018-05-07T09:00:38.759Z,20.4
2018-05-07T09:01:45.974Z,19.5
2018-05-07T09:02:53.388Z,18.5
2018-05-07T09:04:00.617Z,25.9
2018-05-07T09:05:07.576Z,22.7
2018-05-07T09:06:14.793Z,20.9
2018-05-07T09:07:22.007Z,25
2018-05-07T09:08:28.946Z,21.8
2018-05-07T09:09:36.226Z,22.7
2018-05-07T09:10:43.434Z,20.2
2018-05-07T09:11:50.645Z,20.8
2018-05-07T09:12:57.865Z,21.5
2018-05-07T09:14:04.808Z,26.1
2018-05-07T09:15:12.040Z,23.7
2018-05-07T09:16:19.253Z,24.2
2018-05-07T09:17:26.472Z,22.7
2018-05-07T09:18:33.691Z,21.3
2018-05-07T09:19:40.970Z,20.5
2018-05-07T09:20:48.186Z,21
2018-05-07T09:21:55.400Z,26.2
2018-05-07T09:23:02.618Z,19.4
2018-05-07T09:24:09.832Z,20.6
2018-05-07T09:25:17.049Z,19.6
2018-05-07T09:26:24.266Z,28.3
2018-05-07T09:27:31.479Z,20.6
2018-05-07T09:28:38.701Z,19.6
2018-05-07T09:29:45.919Z,20
2018-05-07T09:30:53.133Z,21.5
2018-05-07T09:32:00.346Z,16.7
2018-05-07T09:33:07.564Z,23.1
2018-05-07T09:34:14.786Z,22.2
2018-05-07T09:35:22.000Z,17.8
2018-05-07T09:36:29.213Z,21
2018-05-07T09:37:36.460Z,19.9
2018-05-07T09:38:43.412Z,16.7
2018-05-07T09:39:50.630Z,16.8
2018-05-07T09:40:57.845Z,18.9
2018-05-07T09:42:05.064Z,18.8
2018-05-07T09:43:12.351Z,19.8
2018-05-07T09:44:19.634Z,21.2
2018-05-07T09:45:26.854Z,19.3
2018-05-07T09:46:34.074Z,19.9
2018-05-07T09:47:41.289Z,17
2018-05-07T09:48:48.251Z,19.4
2018-05-07T09:49:55.470Z,18.3
2018-05-07T09:51:02.853Z,20.9
2018-05-07T09:52:10.068Z,16.2
2018-05-07T09:53:17.280Z,21.5
2018-05-07T09:54:24.498Z,20.2
2018-05-07T09:55:31.733Z,17.4
2018-05-07T09:57:45.902Z,21.5
2018-05-07T09:58:53.121Z,20.4
2018-05-07T10:00:00.340Z,18.5
2018-05-07T10:01:07.556Z,16.4
2018-05-07T10:02:14.765Z,14.7
2018-05-07T10:03:21.705Z,17.3
2018-05-07T10:04:28.925Z,18.5
2018-05-07T10:05:36.198Z,15.8
2018-05-07T10:06:43.416Z,15.1
2018-05-07T10:07:50.638Z,18.3
2018-05-07T10:08:57.580Z,15.5
2018-05-07T10:10:04.791Z,18.3
2018-05-07T10:11:12.011Z,17.8
2018-05-07T10:12:19.003Z,14.5
2018-05-07T10:13:26.205Z,18.7
2018-05-07T10:14:33.418Z,16
2018-05-07T10:15:40.355Z,21.5
2018-05-07T10:16:47.304Z,20.1
2018-05-07T10:17:54.246Z,21
2018-05-07T10:19:01.460Z,17.6
2018-05-07T10:20:08.682Z,14.7
2018-05-07T10:21:15.899Z,18.6
2018-05-07T10:22:23.110Z,15.8
2018-05-07T10:23:30.341Z,17.2
2018-05-07T10:24:37.676Z,15.7
2018-05-07T10:25:44.890Z,13.8
2018-05-07T10:26:52.114Z,14.5
2018-05-07T10:27:59.053Z,17.1
2018-05-07T10:29:06.269Z,15
2018-05-07T10:30:13.492Z,13.1
2018-05-07T10:31:20.716Z,15.5
2018-05-07T10:32:27.664Z,15.2
2018-05-07T10:33:34.890Z,16.7
2018-05-07T10:34:42.097Z,14
2018-05-07T10:35:49.312Z,23
2018-05-07T10:36:56.524Z,14.8
2018-05-07T10:38:03.949Z,17
2018-05-07T10:39:11.190Z,17.4
2018-05-07T10:40:18.408Z,15.8
2018-05-07T10:41:25.629Z,15.7
2018-05-07T10:42:32.845Z,15.5
2018-05-07T10:43:40.064Z,16.6
2018-05-07T10:44:47.282Z,17.7
2018-05-07T10:45:54.500Z,13
2018-05-07T10:47:01.717Z,15.1
2018-05-07T10:48:08.933Z,17.8
2018-05-07T10:49:16.160Z,17.4
2018-05-07T10:50:23.842Z,13.5
2018-05-07T10:51:31.069Z,15.4
2018-05-07T10:52:38.282Z,14.1
2018-05-07T10:53:45.501Z,12.9
2018-05-07T10:54:52.717Z,18.6
2018-05-07T10:55:59.935Z,13.2
2018-05-07T10:57:06.873Z,15.6
2018-05-07T10:58:14.096Z,13.9
2018-05-07T10:59:21.332Z,13.5
2018-05-07T11:00:28.273Z,15.3
2018-05-07T11:01:35.584Z,16.1
2018-05-07T11:02:42.949Z,13.9
2018-05-07T11:03:50.167Z,15.2
2018-05-07T11:04:57.384Z,16.3
2018-05-07T11:06:04.607Z,18.2
2018-05-07T11:07:11.847Z,20.3
2018-05-07T11:08:19.078Z,16.2
2018-05-07T11:09:26.043Z,17.6
2018-05-07T11:10:33.256Z,12.3
2018-05-07T11:11:40.477Z,13.7
2018-05-07T11:12:47.707Z,15.2
2018-05-07T11:13:54.953Z,16.9
2018-05-07T11:15:02.187Z,12.7
2018-05-07T11:16:09.395Z,13.7
2018-05-07T11:17:16.620Z,15.6
2018-05-07T11:18:23.560Z,18.1
2018-05-07T11:19:30.502Z,18.7
2018-05-07T11:20:37.718Z,13.1
2018-05-07T11:21:44.942Z,12.5
2018-05-07T11:22:52.155Z,10.6
2018-05-07T11:23:59.380Z,11
2018-05-07T11:25:06.600Z,11.9
2018-05-07T11:26:13.820Z,12
2018-05-07T11:27:20.759Z,14.3
2018-05-07T11:28:27.977Z,11.9
2018-05-07T11:29:35.196Z,13.5
2018-05-07T11:30:42.417Z,12.7
2018-05-07T11:31:49.358Z,12.8
2018-05-07T11:32:56.574Z,11.8
2018-05-07T11:34:03.857Z,10.1
2018-05-07T11:35:10.803Z,11.7
2018-05-07T11:36:18.015Z,14.6
2018-05-07T11:37:25.236Z,10.7
2018-05-07T11:38:31.918Z,13.5
2018-05-07T11:39:39.137Z,11
2018-05-07T11:40:46.352Z,10.6
2018-05-07T11:41:53.585Z,10.8
2018-05-07T11:43:00.807Z,10.4
2018-05-07T11:44:08.020Z,11.1
2018-05-07T11:45:14.960Z,10.9
2018-05-07T11:46:22.177Z,11.3
2018-05-07T11:47:29.523Z,13.8
2018-05-07T11:48:37.315Z,10.2
2018-05-07T11:49:44.532Z,11.3
2018-05-07T11:50:51.771Z,13.2
2018-05-07T11:51:58.998Z,9.3
2018-05-07T11:53:06.219Z,9.6
2018-05-07T11:54:13.486Z,10.6
2018-05-07T11:55:20.711Z,12.1
2018-05-07T11:56:27.931Z,9.2
2018-05-07T11:57:35.160Z,9.8
2018-05-07T11:58:42.383Z,16.3
2018-05-07T11:59:49.616Z,10.4
2018-05-07T12:00:56.580Z,10.8
2018-05-07T12:02:03.804Z,15
2018-05-07T12:03:11.075Z,9.5
2018-05-07T12:04:18.310Z,12.2
2018-05-07T12:05:25.251Z,10.3
2018-05-07T12:06:32.466Z,8.7
2018-05-07T12:07:39.688Z,9.4
2018-05-07T12:08:46.924Z,10
2018-05-07T12:09:54.148Z,10.3
2018-05-07T12:11:01.386Z,8.2
2018-05-07T12:12:08.603Z,11.1
2018-05-07T12:13:15.860Z,8.1
2018-05-07T12:14:23.077Z,11.2
2018-05-07T12:15:30.294Z,7.7
2018-05-07T12:16:37.517Z,8.4
2018-05-07T12:17:44.734Z,8.1
2018-05-07T12:18:51.956Z,10.6
2018-05-07T12:19:59.179Z,7.4
2018-05-07T12:21:06.401Z,10.4
2018-05-07T12:22:13.619Z,8.1
2018-05-07T12:23:20.859Z,8.4
2018-05-07T12:24:28.352Z,9.2
2018-05-07T12:25:35.593Z,8.7
2018-05-07T12:26:42.537Z,8.8
2018-05-07T12:27:49.755Z,7.8
2018-05-07T22:00:05.896Z,60.9
2018-05-07T22:01:12.828Z,61.8
2018-05-07T22:02:19.818Z,61.2
2018-05-07T22:03:27.023Z,61.2
2018-05-07T22:04:34.233Z,61.6
2018-05-07T22:05:41.441Z,61.6
2018-05-07T22:06:48.648Z,61.2
2018-05-07T22:07:55.596Z,61.4
2018-05-07T22:09:02.980Z,61.1
2018-05-07T22:10:09.940Z,59.6
2018-05-07T22:11:17.148Z,61.1
2018-05-07T22:12:24.458Z,59.6
2018-05-07T22:13:32.076Z,61.4
2018-05-07T22:14:39.282Z,62.1
2018-05-07T22:15:46.494Z,62.6
2018-05-07T22:16:53.698Z,63.5
2018-05-07T22:18:00.907Z,63
2018-05-07T22:19:08.121Z,64.9
2018-05-07T22:20:15.329Z,66.1
2018-05-07T22:21:22.546Z,66.9
2018-05-07T22:22:29.746Z,68.4
2018-05-07T22:23:36.959Z,70.4
2018-05-07T22:24:43.898Z,72.2
2018-05-07T22:25:50.833Z,72.2
2018-05-07T22:26:58.051Z,73.3
2018-05-07T22:28:04.985Z,73.6
2018-05-07T22:29:12.197Z,73.3
2018-05-07T22:30:19.133Z,73
2018-05-07T22:31:26.064Z,74.2
2018-05-07T22:32:33.002Z,74.6
2018-05-07T22:33:39.932Z,77.4
2018-05-07T22:34:47.135Z,76.4
2018-05-07T22:35:54.068Z,79.2
2018-05-07T22:37:01.278Z,83
2018-05-07T22:38:07.939Z,85.4
2018-05-07T22:39:15.144Z,85
2018-05-07T22:40:22.359Z,87.5
2018-05-07T22:41:29.570Z,84.8
2018-05-07T22:42:36.779Z,82.4
2018-05-07T22:43:43.996Z,84.7
2018-05-07T22:44:51.205Z,82.5
2018-05-07T22:45:58.438Z,82.3
2018-05-07T22:47:05.641Z,80.9
2018-05-07T22:48:12.574Z,81.7
2018-05-07T22:49:19.510Z,80.2
2018-05-07T22:50:26.722Z,79.4
2018-05-07T22:51:33.665Z,77.7
2018-05-07T22:52:40.914Z,78.5
2018-05-07T22:53:48.114Z,75.9
2018-05-07T22:54:55.051Z,76.9
2018-05-07T22:56:02.261Z,79.4
2018-05-07T22:57:09.472Z,77.5
2018-05-07T22:58:16.717Z,78.4
2018-05-07T22:59:23.926Z,79.6
2018-05-07T23:00:31.135Z,82.6
2018-05-07T23:01:38.068Z,82.8
2018-05-07T23:02:45.277Z,82
2018-05-07T23:03:52.484Z,80.8
2018-05-07T23:04:59.696Z,80.4
2018-05-07T23:06:06.908Z,80.3
2018-05-07T23:07:14.121Z,79.7
2018-05-07T23:08:21.339Z,82.2
2018-05-07T23:09:28.274Z,80.3
2018-05-07T23:10:35.480Z,78.5
2018-05-07T23:11:42.691Z,78.2
2018-05-07T23:12:49.911Z,79
2018-05-07T23:13:57.106Z,79
2018-05-07T23:15:04.313Z,77.5
2018-05-07T23:16:11.517Z,76.7
2018-05-07T23:17:18.733Z,84.5
2018-05-07T23:18:25.943Z,78.4
2018-05-07T23:19:33.303Z,79.7
2018-05-07T23:20:40.507Z,86.9
2018-05-07T23:21:47.715Z,88.5
2018-05-07T23:22:54.924Z,86.6
2018-05-07T23:24:02.128Z,84.1
2018-05-07T23:25:09.342Z,87.4
2018-05-07T23:26:16.564Z,83.2
2018-05-07T23:27:23.773Z,81.7
2018-05-07T23:28:30.991Z,87.8
2018-05-07T23:29:38.196Z,91.6
2018-05-07T23:30:45.203Z,94.1
2018-05-07T23:31:52.407Z,93.4
2018-05-07T23:32:59.615Z,90.9
2018-05-07T23:34:06.821Z,92.1
2018-05-07T23:35:14.034Z,93.5
2018-05-07T23:36:21.238Z,95.3
2018-05-07T23:37:28.446Z,95.9
2018-05-07T23:38:35.371Z,95.1
2018-05-07T23:39:42.299Z,94.9
2018-05-07T23:40:49.513Z,94.3
2018-05-07T23:41:56.720Z,93.1
2018-05-07T23:43:03.657Z,94.8
2018-05-07T23:44:10.866Z,95.4
2018-05-07T23:45:18.304Z,99.9
2018-05-07T23:46:25.237Z,99.9
2018-05-07T23:47:32.450Z,99.9
2018-05-07T23:48:39.650Z,99.9
2018-05-07T23:49:46.584Z,99.9
2018-05-07T23:50:53.804Z,99.9
2018-05-07T23:52:01.009Z,99.9
2018-05-07T23:53:07.945Z,99.9
2018-05-07T23:54:15.149Z,97.5
2018-05-07T23:55:22.355Z,99.1
2018-05-07T23:56:29.611Z,99.9
2018-05-07T23:57:36.821Z,99.9
2018-05-07T23:58:44.027Z,99.9
2018-05-07T23:59:50.964Z,98.9
